Time;durP1;ratioP1;P1;durP2;ratioP2;P2;SDS_P1;SDS_P2;PMS_P1;PMS_P2;Temp;Humidity;BMP_temperature;BMP_pressure;BME280_temperature;BME280_humidity;BME280_pressure;Samples;Min_cycle;Max_cycle;Signal;HPM_P1;HPM_P2
2021/03/31 00:00:36;;;;;;;1.57;0.87;;;;;;;8.64;89.72;102167.59;5099964;28;20476;-69
2021/03/31 00:03:06;;;;;;;1.00;1.00;;;;;;;8.56;89.25;102163.44;5116871;22;20498;-67
2021/03/31 00:05:32;;;;;;;0.77;0.60;;;;;;;8.46;89.26;102165.19;5075201;28;20452;-67
2021/03/31 00:07:58;;;;;;;3.67;2.27;;;;;;;8.30;89.98;102166.81;5077579;28;20487;-66
2021/03/31 00:10:27;;;;;;;7.60;1.93;;;;;;;8.32;90.20;102168.19;5095173;28;20436;-67
2021/03/31 00:12:53;;;;;;;2.83;2.13;;;;;;;8.25;91.59;102164.03;5092373;28;20468;-66
2021/03/31 00:15:20;;;;;;;1.20;1.10;;;;;;;8.25;91.19;102164.03;5075049;28;20465;-65
2021/03/31 00:17:46;;;;;;;2.90;2.23;;;;;;;8.17;92.45;102154.44;5075327;28;20472;-66
2021/03/31 00:20:15;;;;;;;0.77;0.70;;;;;;;8.11;93.51;102157.31;5075309;28;20485;-65
2021/03/31 00:22:42;;;;;;;1.30;1.20;;;;;;;8.03;94.41;102145.88;5074987;28;20452;-66
2021/03/31 00:25:09;;;;;;;1.40;1.30;;;;;;;8.06;94.12;102150.78;5094844;28;20437;-66
2021/03/31 00:27:35;;;;;;;1.90;1.43;;;;;;;8.16;93.10;102150.13;5095104;28;20436;-66
2021/03/31 00:30:01;;;;;;;2.40;1.23;;;;;;;8.04;94.31;102143.97;5075319;28;20451;-65
2021/03/31 00:32:27;;;;;;;3.77;1.53;;;;;;;8.01;94.14;102147.16;5074795;28;20441;-65
2021/03/31 00:34:54;;;;;;;2.43;1.00;;;;;;;7.93;95.21;102144.91;5092735;28;20472;-65
2021/03/31 00:37:20;;;;;;;3.23;1.70;;;;;;;8.07;94.04;102143.50;5094973;28;20433;-66
2021/03/31 00:39:46;;;;;;;1.50;1.40;;;;;;;7.95;94.40;102142.75;5077387;28;20452;-66
2021/03/31 00:42:12;;;;;;;1.60;1.30;;;;;;;7.92;94.53;102133.25;5074472;28;20434;-65
2021/03/31 00:44:38;;;;;;;1.53;1.03;;;;;;;7.87;95.54;102135.06;5090262;28;20460;-69
2021/03/31 00:47:04;;;;;;;1.53;1.33;;;;;;;7.81;95.20;102140.38;5094743;28;20494;-67
2021/03/31 00:49:31;;;;;;;1.17;1.07;;;;;;;7.90;94.58;102135.41;5079777;28;20442;-66
2021/03/31 00:51:59;;;;;;;1.93;1.83;;;;;;;7.86;92.44;102136.13;5074307;28;20848;-67
2021/03/31 00:54:25;;;;;;;2.80;2.60;;;;;;;7.87;91.40;102132.38;5087883;28;20986;-67
2021/03/31 00:56:51;;;;;;;1.50;1.40;;;;;;;7.81;90.42;102137.69;5094487;28;20470;-68
2021/03/31 00:59:17;;;;;;;1.67;0.90;;;;;;;7.71;90.87;102134.00;5081935;28;20474;-67
2021/03/31 01:01:43;;;;;;;1.77;1.20;;;;;;;7.65;91.58;102130.38;5074136;28;20515;-68
2021/03/31 01:04:09;;;;;;;4.20;1.37;;;;;;;7.61;91.06;102140.00;5085273;28;20472;-68
2021/03/31 01:06:35;;;;;;;2.93;1.43;;;;;;;7.61;91.09;102134.63;5094225;28;20448;-68
2021/03/31 01:09:04;;;;;;;2.00;1.60;;;;;;;7.52;91.07;102136.88;5083884;28;20812;-67
2021/03/31 01:11:41;;;;;;;16.93;3.23;;;;;;;7.46;91.55;102135.16;5074225;28;20446;-67
2021/03/31 01:14:17;;;;;;;2.47;1.77;;;;;;;7.43;90.97;102134.81;5084728;28;20475;-67
2021/03/31 01:16:49;;;;;;;1.83;1.17;;;;;;;7.42;92.49;102138.59;5094238;28;20428;-69
2021/03/31 01:19:51;;;;;;;1.47;1.37;;;;;;;7.39;93.43;102129.09;5080299;28;20453;-67
2021/03/31 01:22:44;;;;;;;2.60;1.53;;;;;;;7.29;93.64;102129.72;5073753;28;20472;-68
2021/03/31 01:25:16;;;;;;;3.13;1.57;;;;;;;7.24;94.29;102121.56;5073845;28;20792;-68
2021/03/31 01:28:03;;;;;;;1.23;0.70;;;;;;;7.27;94.77;102125.66;5073284;28;20810;-67
2021/03/31 01:30:38;;;;;;;0.80;0.80;;;;;;;7.25;94.48;102117.78;5073356;28;20426;-68
2021/03/31 01:33:33;;;;;;;0.73;0.73;;;;;;;7.23;94.49;102122.63;5073648;28;20476;-68
2021/03/31 01:36:00;;;;;;;1.80;1.33;;;;;;;7.16;94.74;102118.41;5073833;28;20475;-67
2021/03/31 01:38:28;;;;;;;1.43;1.20;;;;;;;7.12;94.86;102120.78;5073620;28;20495;-67
2021/03/31 01:40:56;;;;;;;1.67;1.00;;;;;;;7.16;94.61;102119.22;5072899;28;20485;-68
2021/03/31 01:43:24;;;;;;;1.77;1.27;;;;;;;7.11;94.98;102121.84;5073427;28;20458;-68
2021/03/31 01:45:54;;;;;;;3.77;1.33;;;;;;;7.20;94.01;102115.00;5073437;28;20445;-67
2021/03/31 01:48:23;;;;;;;2.80;1.27;;;;;;;7.08;92.33;102114.22;5073434;28;20445;-67
2021/03/31 01:50:53;;;;;;;1.37;1.27;;;;;;;7.10;92.23;102116.69;5073044;28;20966;-68
2021/03/31 01:53:20;;;;;;;0.73;0.60;;;;;;;7.10;91.86;102114.81;5073299;28;20450;-69
2021/03/31 01:55:49;;;;;;;3.43;2.10;;;;;;;7.16;90.75;102110.34;5073355;28;20448;-68
2021/03/31 01:58:17;;;;;;;3.07;1.83;;;;;;;7.10;89.95;102109.44;5073123;28;21102;-69
2021/03/31 02:00:43;;;;;;;3.57;2.80;;;;;;;7.03;90.55;102098.78;5073127;28;20481;-69
2021/03/31 02:03:10;;;;;;;1.07;0.87;;;;;;;6.99;90.77;102102.19;5073103;28;20470;-69
2021/03/31 02:05:37;;;;;;;0.87;0.87;;;;;;;6.80;91.80;102094.28;5073070;28;20426;-69
2021/03/31 02:08:04;;;;;;;1.47;1.13;;;;;;;6.92;91.70;102093.44;5073195;28;20449;-68
2021/03/31 02:10:32;;;;;;;0.60;0.50;;;;;;;6.89;92.03;102086.66;5073157;28;20985;-68
2021/03/31 02:12:59;;;;;;;1.57;1.47;;;;;;;7.00;91.61;102095.78;5073137;28;20454;-68
2021/03/31 02:15:28;;;;;;;1.40;1.30;;;;;;;6.86;92.44;102091.69;5072997;28;20951;-70
2021/03/31 02:17:55;;;;;;;0.90;0.90;;;;;;;6.81;93.03;102085.16;5073161;28;20445;-69
2021/03/31 02:20:21;;;;;;;3.60;2.30;;;;;;;6.82;92.93;102086.81;5073075;28;20477;-68
2021/03/31 02:22:49;;;;;;;2.00;1.50;;;;;;;6.77;93.41;102088.56;5072714;28;20844;-70
2021/03/31 02:25:15;;;;;;;1.93;0.83;;;;;;;6.67;94.76;102089.16;5073068;28;20440;-69
2021/03/31 02:27:44;;;;;;;0.60;0.60;;;;;;;6.66;94.73;102092.09;5072990;28;20452;-69
2021/03/31 02:30:13;;;;;;;0.80;0.73;;;;;;;6.74;94.47;102087.16;5073097;28;20441;-70
2021/03/31 02:32:41;;;;;;;3.43;2.33;;;;;;;6.67;94.70;102083.78;5072792;28;20951;-70
2021/03/31 02:35:09;;;;;;;3.23;2.23;;;;;;;6.59;95.25;102089.53;5073001;28;20445;-69
2021/03/31 02:37:38;;;;;;;1.37;0.83;;;;;;;6.64;94.50;102081.59;5072907;28;20498;-69
2021/03/31 02:40:07;;;;;;;2.20;1.40;;;;;;;6.52;95.15;102086.97;5072836;28;20481;-68
2021/03/31 02:42:33;;;;;;;0.60;0.60;;;;;;;6.53;95.04;102088.63;5055070;28;20444;-70
2021/03/31 02:45:01;;;;;;;1.13;1.13;;;;;;;6.62;93.55;102086.38;5072741;28;20442;-69
2021/03/31 02:47:30;;;;;;;1.87;1.73;;;;;;;6.74;91.39;102087.16;5073041;28;20445;-69
2021/03/31 02:49:58;;;;;;;2.13;1.13;;;;;;;6.55;91.62;102081.13;5072793;28;20453;-70
2021/03/31 02:52:25;;;;;;;3.10;1.63;;;;;;;6.47;92.27;102080.69;5072585;28;20819;-69
2021/03/31 02:54:52;;;;;;;0.93;0.90;;;;;;;6.46;91.75;102084.41;5076281;28;20461;-70
2021/03/31 02:57:19;;;;;;;2.13;1.90;;;;;;;6.46;91.97;102079.03;5076789;28;20449;-68
2021/03/31 02:59:45;;;;;;;1.83;0.90;;;;;;;6.43;92.51;102082.22;5076510;28;20458;-70
2021/03/31 03:02:16;;;;;;;2.93;1.13;;;;;;;6.35;92.50;102079.88;5076445;28;20440;-69
2021/03/31 03:04:45;;;;;;;3.80;2.30;;;;;;;6.25;92.42;102081.28;5075867;28;20481;-70
2021/03/31 03:07:12;;;;;;;1.10;1.00;;;;;;;6.23;93.21;102077.19;5076318;28;20481;-68
2021/03/31 03:09:38;;;;;;;4.00;1.40;;;;;;;6.16;93.93;102082.69;5075987;28;20950;-69
2021/03/31 03:12:07;;;;;;;2.60;2.40;;;;;;;6.18;94.69;102075.19;5076306;28;20450;-70
2021/03/31 03:14:34;;;;;;;2.50;1.40;;;;;;;6.20;94.73;102074.97;5076035;28;20457;-69
2021/03/31 03:17:00;;;;;;;0.50;0.40;;;;;;;6.22;94.51;102070.97;5076121;28;20429;-69
2021/03/31 03:19:27;;;;;;;5.10;2.33;;;;;;;6.11;95.40;102074.50;5076083;28;20448;-69
2021/03/31 03:21:54;;;;;;;1.67;1.10;;;;;;;6.14;95.82;102065.94;5076157;28;20477;-68
2021/03/31 03:24:22;;;;;;;0.57;0.33;;;;;;;6.15;96.04;102064.88;5075728;28;20465;-68
2021/03/31 03:26:48;;;;;;;1.77;1.67;;;;;;;6.25;95.21;102061.63;5075922;28;20495;-68
2021/03/31 03:29:17;;;;;;;3.47;3.17;;;;;;;6.20;94.76;102056.97;5075562;28;20445;-68
2021/03/31 03:31:44;;;;;;;2.03;1.83;;;;;;;6.08;95.08;102058.84;5075976;28;20461;-69
2021/03/31 03:34:10;;;;;;;0.80;0.80;;;;;;;6.02;95.55;102059.75;5075953;28;20461;-69
2021/03/31 03:36:40;;;;;;;1.83;1.37;;;;;;;6.17;94.83;102051.22;5075941;28;20448;-69
2021/03/31 03:39:06;;;;;;;0.73;0.70;;;;;;;6.22;94.19;102052.16;5075903;28;20483;-69
2021/03/31 03:41:32;;;;;;;1.50;1.20;;;;;;;6.07;94.31;102054.50;5075481;28;21013;-69
2021/03/31 03:43:58;;;;;;;1.30;1.20;;;;;;;6.06;93.80;102053.69;5075476;28;21047;-69
2021/03/31 03:46:30;;;;;;;0.73;0.73;;;;;;;6.12;92.90;102053.81;5075367;28;20481;-68
2021/03/31 03:48:57;;;;;;;1.53;1.17;;;;;;;6.13;92.35;102050.06;5075606;28;20433;-68
2021/03/31 03:51:24;;;;;;;1.83;1.57;;;;;;;5.94;92.46;102038.59;5075308;28;20868;-68
2021/03/31 03:53:51;;;;;;;3.50;1.90;;;;;;;5.97;91.61;102046.19;5075371;28;20457;-68
2021/03/31 03:56:17;;;;;;;1.40;0.80;;;;;;;5.87;91.54;102051.31;5075659;28;20445;-68
2021/03/31 03:58:43;;;;;;;3.33;2.23;;;;;;;5.84;91.71;102049.88;5075139;28;20473;-68
2021/03/31 04:01:09;;;;;;;0.50;0.50;;;;;;;5.75;91.77;102048.59;5075386;28;20488;-67
2021/03/31 04:03:35;;;;;;;0.70;0.60;;;;;;;5.88;91.71;102050.25;5074395;28;20485;-68
2021/03/31 04:06:01;;;;;;;1.10;1.00;;;;;;;5.99;91.82;102044.91;5075081;28;20449;-67
2021/03/31 04:08:27;;;;;;;4.63;1.40;;;;;;;6.01;92.53;102039.28;5075020;28;20446;-67
2021/03/31 04:10:57;;;;;;;0.90;0.77;;;;;;;5.86;94.45;102037.06;5075155;28;20463;-68
2021/03/31 04:13:24;;;;;;;1.50;1.10;;;;;;;5.83;94.84;102035.63;5075172;28;20476;-68
2021/03/31 04:15:53;;;;;;;0.60;0.53;;;;;;;5.77;95.70;102030.38;5075137;28;20457;-69
2021/03/31 04:18:21;;;;;;;1.03;0.93;;;;;;;5.74;96.39;102031.66;5074825;28;20445;-68
2021/03/31 04:20:49;;;;;;;0.93;0.93;;;;;;;5.82;95.84;102034.00;5074866;28;20477;-68
2021/03/31 04:23:16;;;;;;;1.10;1.03;;;;;;;5.87;95.96;102033.31;5075013;28;20472;-69
2021/03/31 04:25:42;;;;;;;1.07;0.97;;;;;;;5.90;95.81;102034.72;5074883;28;20440;-66
2021/03/31 04:28:11;;;;;;;0.93;0.93;;;;;;;5.91;95.45;102039.03;5074869;28;20444;-65
2021/03/31 04:30:39;;;;;;;4.20;1.93;;;;;;;5.89;96.02;102030.38;5074767;28;20437;-66
2021/03/31 04:33:08;;;;;;;1.10;0.40;;;;;;;5.90;96.38;102023.97;5074650;28;20523;-65
2021/03/31 04:35:34;;;;;;;1.33;1.23;;;;;;;5.82;96.17;102023.25;5074739;28;20503;-67
2021/03/31 04:38:11;;;;;;;8.07;2.60;;;;;;;5.97;94.05;102027.38;5074683;28;20437;-65
2021/03/31 04:40:58;;;;;;;3.27;1.33;;;;;;;5.91;93.52;102021.03;5074506;28;20465;-66
2021/03/31 04:43:29;;;;;;;4.07;1.57;;;;;;;5.90;92.87;102015.91;5074391;28;20522;-65
2021/03/31 04:45:59;;;;;;;1.80;1.70;;;;;;;5.81;92.92;102020.81;5074393;28;20421;-65
2021/03/31 04:48:25;;;;;;;0.80;0.80;;;;;;;5.86;92.21;102012.03;5074342;28;20452;-66
2021/03/31 04:50:51;;;;;;;1.13;1.00;;;;;;;5.88;91.32;102010.72;5074371;28;20465;-65
2021/03/31 04:53:17;;;;;;;1.60;1.50;;;;;;;5.89;91.35;102007.00;5074202;28;20551;-65
2021/03/31 04:55:43;;;;;;;2.67;1.40;;;;;;;5.82;91.28;101998.22;5074214;28;20442;-67
2021/03/31 04:58:09;;;;;;;1.70;1.60;;;;;;;5.83;91.47;102008.75;5074244;28;20437;-66
2021/03/31 05:00:36;;;;;;;1.37;1.27;;;;;;;5.79;91.30;101999.50;5073975;28;20859;-66
2021/03/31 05:03:03;;;;;;;0.83;0.60;;;;;;;5.68;94.28;102002.22;5073871;28;20508;-66
2021/03/31 05:05:29;;;;;;;1.73;1.10;;;;;;;5.57;95.88;101998.44;5074046;28;20445;-65
2021/03/31 05:07:55;;;;;;;0.67;0.67;;;;;;;5.55;96.67;101995.19;5073979;28;20938;-65
2021/03/31 05:10:21;;;;;;;3.73;1.10;;;;;;;5.60;96.94;101995.31;5073851;28;20434;-66
2021/03/31 05:12:47;;;;;;;1.60;0.93;;;;;;;5.68;96.94;101999.53;5073795;28;20438;-65
2021/03/31 05:15:13;;;;;;;0.73;0.60;;;;;;;5.74;96.49;101993.19;5073241;28;20440;-65
2021/03/31 05:17:40;;;;;;;2.10;1.90;;;;;;;5.88;96.31;101996.47;5073312;28;20495;-66
2021/03/31 05:20:07;;;;;;;0.80;0.50;;;;;;;5.99;95.55;101995.69;5073667;28;20445;-65
2021/03/31 05:22:33;;;;;;;3.50;1.60;;;;;;;6.13;94.81;101999.75;5073843;28;20539;-67
2021/03/31 05:24:59;;;;;;;6.43;1.57;;;;;;;6.24;94.95;102007.00;5073376;28;20504;-65
2021/03/31 05:27:25;;;;;;;2.93;1.80;;;;;;;6.17;96.15;102003.63;5073870;28;20433;-65
2021/03/31 05:29:51;;;;;;;0.77;0.67;;;;;;;6.18;96.32;101999.88;5073836;28;20433;-66
2021/03/31 05:32:17;;;;;;;1.07;1.00;;;;;;;6.16;96.90;101999.28;5073750;28;21014;-65
2021/03/31 05:34:43;;;;;;;0.50;0.40;;;;;;;6.10;96.58;101997.53;5073534;28;20449;-66
2021/03/31 05:37:11;;;;;;;2.13;2.00;;;;;;;6.14;95.72;101998.69;5073552;28;20463;-66
2021/03/31 05:39:37;;;;;;;2.13;1.53;;;;;;;6.32;94.65;101992.34;5073636;28;20448;-68
2021/03/31 05:42:04;;;;;;;2.00;1.47;;;;;;;6.30;94.69;101992.59;5073497;28;20481;-69
2021/03/31 05:44:30;;;;;;;2.33;1.70;;;;;;;6.42;94.03;101986.34;5073588;28;20835;-68
2021/03/31 05:46:57;;;;;;;1.90;1.43;;;;;;;6.56;92.35;101995.81;5073465;28;20437;-68
2021/03/31 05:49:24;;;;;;;0.83;0.53;;;;;;;6.70;91.81;101993.66;5073209;28;21010;-68
2021/03/31 05:51:50;;;;;;;3.13;2.00;;;;;;;6.62;92.74;102002.09;5073454;28;20806;-69
2021/03/31 05:54:16;;;;;;;0.43;0.37;;;;;;;6.68;92.74;102004.63;5073054;28;20461;-68
2021/03/31 05:56:44;;;;;;;2.40;1.50;;;;;;;6.74;93.05;101997.50;5073229;28;20444;-68
2021/03/31 05:59:10;;;;;;;1.53;0.83;;;;;;;6.83;93.67;101985.28;5073328;28;20445;-68
2021/03/31 06:01:38;;;;;;;1.27;0.97;;;;;;;6.85;94.83;101985.03;5073180;28;20481;-69
2021/03/31 06:04:05;;;;;;;1.43;1.33;;;;;;;6.92;95.04;101985.72;5098497;22;21025;-70
2021/03/31 06:06:31;;;;;;;1.80;1.40;;;;;;;6.98;95.54;101982.03;5073187;28;20825;-73
2021/03/31 06:08:58;;;;;;;0.63;0.63;;;;;;;7.12;95.45;101990.63;5072960;28;20445;-70
2021/03/31 06:11:25;;;;;;;1.10;1.00;;;;;;;7.26;95.63;101983.84;5073207;28;20481;-68
2021/03/31 06:13:53;;;;;;;2.20;1.43;;;;;;;7.43;96.26;101983.88;5072805;28;20850;-70
2021/03/31 06:16:31;;;;;;;1.37;1.03;;;;;;;7.64;96.61;101979.63;5073295;28;20452;-70
2021/03/31 06:18:57;;;;;;;0.90;0.87;;;;;;;7.74;97.30;101985.97;5073098;28;20864;-69
2021/03/31 06:21:23;;;;;;;1.27;1.00;;;;;;;7.79;98.05;101977.97;5073028;28;20580;-70
2021/03/31 06:23:54;;;;;;;3.13;1.20;;;;;;;7.91;98.07;101979.75;5073059;28;20463;-69
2021/03/31 06:26:24;;;;;;;1.73;1.20;;;;;;;8.04;97.92;101985.59;5073268;28;20429;-71
2021/03/31 06:28:55;;;;;;;3.03;2.77;;;;;;;8.18;97.95;101986.03;5077084;28;20536;-69
2021/03/31 06:31:26;;;;;;;0.73;0.67;;;;;;;8.32;97.85;101981.94;5078380;28;20935;-71
2021/03/31 06:33:52;;;;;;;0.70;0.70;;;;;;;8.45;97.71;101982.63;5078421;28;20469;-70
2021/03/31 06:36:33;;;;;;;1.60;0.90;;;;;;;8.57;97.75;101983.31;5076686;28;20437;-69
2021/03/31 06:38:59;;;;;;;1.03;0.80;;;;;;;8.71;97.12;101983.72;5077254;28;20464;-70
2021/03/31 06:41:28;;;;;;;1.63;1.43;;;;;;;8.80;96.83;101977.59;5076469;28;20483;-70
2021/03/31 06:43:59;;;;;;;1.20;1.10;;;;;;;8.97;96.29;101982.09;5076782;28;20473;-69
2021/03/31 06:46:36;;;;;;;2.00;1.90;;;;;;;9.08;95.73;101973.84;5076893;28;20437;-69
2021/03/31 06:49:03;;;;;;;1.37;1.27;;;;;;;9.21;95.70;101963.66;5076980;28;20483;-72
2021/03/31 06:51:31;;;;;;;1.83;0.93;;;;;;;9.37;96.19;101975.44;5076805;28;20445;-69
2021/03/31 06:54:11;;;;;;;4.27;1.83;;;;;;;9.51;96.56;101968.50;5076617;28;20472;-69
2021/03/31 06:56:38;;;;;;;1.83;1.27;;;;;;;9.68;97.09;101971.88;5076724;28;20420;-69
2021/03/31 06:59:04;;;;;;;1.17;1.10;;;;;;;9.86;97.33;101971.44;5076279;28;20446;-70
2021/03/31 07:01:32;;;;;;;2.07;1.90;;;;;;;10.04;97.24;101980.19;5076092;28;20477;-69
2021/03/31 07:04:05;;;;;;;5.13;3.07;;;;;;;10.28;97.29;101973.31;5075963;28;20473;-69
2021/03/31 07:06:32;;;;;;;8.87;1.97;;;;;;;10.59;96.51;101976.13;5078578;28;20520;-70
2021/03/31 07:08:59;;;;;;;1.30;1.20;;;;;;;10.88;95.80;101972.94;5081025;28;20452;-69
2021/03/31 07:11:36;;;;;;;3.80;1.70;;;;;;;11.07;94.76;101969.44;5079356;28;20506;-69
2021/03/31 07:14:05;;;;;;;6.23;2.30;;;;;;;11.25;93.69;101967.28;5076684;28;20461;-69
2021/03/31 07:16:32;;;;;;;6.37;3.00;;;;;;;11.46;93.83;101976.22;5076307;28;20503;-69
2021/03/31 07:18:59;;;;;;;1.77;1.67;;;;;;;11.63;93.32;101974.84;5077856;28;20532;-69
2021/03/31 07:21:27;;;;;;;1.93;1.57;;;;;;;11.78;92.74;101965.88;5080897;28;20507;-68
2021/03/31 07:23:53;;;;;;;0.80;0.80;;;;;;;11.90;92.15;101973.72;5076098;28;20460;-69
2021/03/31 07:26:20;;;;;;;2.40;1.73;;;;;;;12.10;91.27;101965.53;5076046;28;20520;-70
2021/03/31 07:28:49;;;;;;;4.70;2.23;;;;;;;12.31;90.72;101966.28;5075816;28;20499;-70
2021/03/31 07:31:21;;;;;;;0.90;0.80;;;;;;;12.53;89.57;101965.91;5076158;28;20477;-69
2021/03/31 07:34:00;;;;;;;2.60;1.30;;;;;;;12.72;88.22;101968.78;5076132;28;20823;-68
2021/03/31 07:36:27;;;;;;;2.47;2.00;;;;;;;12.94;87.31;101967.53;5076002;28;20796;-67
2021/03/31 07:38:53;;;;;;;1.43;0.90;;;;;;;13.12;86.15;101967.66;5075163;28;20449;-68
2021/03/31 07:41:22;;;;;;;2.50;1.93;;;;;;;13.32;85.21;101972.16;5076075;28;20487;-69
2021/03/31 07:43:49;;;;;;;1.53;1.33;;;;;;;13.49;84.27;101977.19;5075762;28;20949;-70
2021/03/31 07:46:19;;;;;;;1.93;1.80;;;;;;;13.70;83.08;101961.47;5076109;28;20450;-73
2021/03/31 07:48:46;;;;;;;1.60;1.03;;;;;;;13.97;80.71;101969.06;5075648;28;20449;-69
2021/03/31 07:51:17;;;;;;;1.50;1.40;;;;;;;14.22;79.56;101980.78;5075401;28;20852;-70
2021/03/31 07:53:44;;;;;;;3.80;1.40;;;;;;;14.43;77.55;101971.22;5075284;28;20996;-73
2021/03/31 07:56:14;;;;;;;4.50;1.90;;;;;;;14.63;77.32;101972.91;5075518;28;20533;-70
2021/03/31 07:58:40;;;;;;;3.37;1.77;;;;;;;14.73;77.36;101975.50;5075358;28;20950;-70
2021/03/31 08:01:10;;;;;;;3.70;2.20;;;;;;;14.77;77.26;101968.34;5075022;28;20492;-70
2021/03/31 08:03:39;;;;;;;1.73;1.30;;;;;;;14.79;77.48;101968.88;5074793;28;20862;-71
2021/03/31 08:06:10;;;;;;;4.97;2.10;;;;;;;14.88;76.47;101969.03;5074951;28;20925;-72
2021/03/31 08:08:38;;;;;;;1.80;1.40;;;;;;;14.91;76.60;101962.16;5075019;28;20805;-71
2021/03/31 08:11:05;;;;;;;2.43;1.23;;;;;;;15.08;75.86;101959.69;5080154;28;20445;-72
2021/03/31 08:13:32;;;;;;;4.70;2.27;;;;;;;15.23;75.50;101958.63;5075194;28;20465;-71
2021/03/31 08:16:00;;;;;;;2.33;1.90;;;;;;;15.28;75.27;101966.75;5075121;28;20446;-71
2021/03/31 08:18:27;;;;;;;2.63;2.40;;;;;;;15.24;75.53;101963.81;5074916;28;20445;-70
2021/03/31 08:20:55;;;;;;;3.30;2.57;;;;;;;15.26;75.00;101958.84;5074788;28;20500;-70
2021/03/31 08:23:48;;;;;;;4.40;1.60;;;;;;;15.28;74.59;101955.84;5074444;28;20437;-71
2021/03/31 08:26:31;;;;;;;2.93;2.13;;;;;;;15.30;73.32;101953.59;5068171;28;20812;-71
2021/03/31 08:28:57;;;;;;;8.17;2.43;;;;;;;15.29;72.99;101960.19;5074732;28;20434;-71
2021/03/31 08:31:26;;;;;;;2.20;0.90;;;;;;;15.43;71.87;101958.28;5074444;28;20818;-71
2021/03/31 08:33:52;;;;;;;1.60;1.50;;;;;;;15.51;72.22;101956.78;5065090;28;20501;-72
2021/03/31 08:36:19;;;;;;;3.63;1.30;;;;;;;15.61;71.31;101953.88;5054352;28;20449;-69
2021/03/31 08:38:50;;;;;;;2.53;1.20;;;;;;;15.86;69.61;101958.91;5054344;28;20560;-70
2021/03/31 08:41:18;;;;;;;1.73;1.63;;;;;;;16.19;67.62;101947.03;5054198;28;21083;-71
2021/03/31 08:43:45;;;;;;;6.13;2.93;;;;;;;16.36;66.88;101950.75;5053544;28;20462;-70
2021/03/31 08:46:11;;;;;;;5.40;2.27;;;;;;;16.58;66.13;101949.19;5053920;28;21002;-69
2021/03/31 08:48:39;;;;;;;5.87;1.53;;;;;;;16.69;64.76;101950.59;5054347;28;20445;-69
2021/03/31 08:51:07;;;;;;;3.80;1.50;;;;;;;16.91;63.12;101949.84;5054422;28;20442;-70
2021/03/31 08:53:34;;;;;;;2.93;2.00;;;;;;;17.08;60.21;101951.88;5053729;28;20995;-70
2021/03/31 08:56:02;;;;;;;7.00;2.47;;;;;;;17.18;59.60;101948.06;5053777;28;20446;-70
2021/03/31 08:58:28;;;;;;;4.23;2.67;;;;;;;17.25;58.94;101945.72;5054130;28;20435;-70
2021/03/31 09:00:54;;;;;;;3.87;1.80;;;;;;;17.32;59.34;101943.34;5071039;28;20496;-70
2021/03/31 09:03:21;;;;;;;2.83;1.37;;;;;;;17.37;58.19;101946.75;5073822;28;20460;-70
2021/03/31 09:05:56;;;;;;;2.23;1.23;;;;;;;17.50;56.79;101942.31;5073759;28;20788;-71
2021/03/31 09:08:22;;;;;;;2.77;1.70;;;;;;;17.59;55.65;101940.44;5074005;28;20456;-70
2021/03/31 09:10:54;;;;;;;2.30;1.37;;;;;;;17.68;54.75;101939.66;5073915;28;20442;-70
2021/03/31 09:13:24;;;;;;;5.43;2.70;;;;;;;17.75;54.14;101943.59;5074246;28;20430;-70
2021/03/31 09:15:55;;;;;;;3.67;1.47;;;;;;;18.00;51.04;101944.00;5073814;28;20445;-70
2021/03/31 09:18:21;;;;;;;5.23;1.60;;;;;;;18.12;51.88;101942.28;5073950;28;20444;-70
2021/03/31 09:20:47;;;;;;;5.20;2.13;;;;;;;18.20;50.88;101929.72;5073831;28;20508;-70
2021/03/31 09:23:19;;;;;;;3.33;2.03;;;;;;;18.32;49.53;101935.34;5073426;28;20823;-70
2021/03/31 09:25:54;;;;;;;2.37;1.30;;;;;;;18.55;46.79;101940.72;5073813;28;20774;-70
2021/03/31 09:28:20;;;;;;;6.13;3.30;;;;;;;18.70;47.19;101928.50;5073752;28;20421;-70
2021/03/31 09:30:49;;;;;;;4.30;1.70;;;;;;;18.80;47.66;101939.13;5073558;28;20436;-68
2021/03/31 09:33:25;;;;;;;2.20;1.47;;;;;;;18.78;48.70;101931.25;5073219;28;20958;-69
2021/03/31 09:35:51;;;;;;;5.27;2.20;;;;;;;18.92;47.88;101927.50;5073451;28;20885;-70
2021/03/31 09:38:24;;;;;;;2.83;1.27;;;;;;;19.05;45.52;101923.78;5073802;28;20441;-70
2021/03/31 09:41:01;;;;;;;6.90;2.57;;;;;;;19.19;44.08;101910.66;5073454;28;20465;-70
2021/03/31 09:43:28;;;;;;;3.40;1.17;;;;;;;19.38;43.78;101921.28;5073365;28;20463;-70
2021/03/31 09:45:55;;;;;;;3.40;2.07;;;;;;;19.49;42.38;101916.25;5073287;28;20815;-70
2021/03/31 09:48:21;;;;;;;3.33;1.63;;;;;;;19.52;42.19;101913.66;5079368;28;21038;-70
2021/03/31 09:50:47;;;;;;;2.17;1.50;;;;;;;19.68;42.28;101913.91;5073478;28;20433;-70
2021/03/31 09:53:13;;;;;;;4.67;2.10;;;;;;;19.84;41.54;101912.22;5073402;28;20448;-70
2021/03/31 09:55:40;;;;;;;3.00;1.70;;;;;;;19.94;39.96;101911.03;5073282;28;20490;-70
2021/03/31 09:58:07;;;;;;;6.50;2.73;;;;;;;19.97;38.81;101904.09;5072910;28;20938;-70
2021/03/31 10:00:37;;;;;;;22.83;2.53;;;;;;;20.06;38.93;101896.59;5073161;28;20449;-70
2021/03/31 10:03:05;;;;;;;3.00;1.57;;;;;;;20.16;39.40;101896.19;5072539;28;20922;-70
2021/03/31 10:05:31;;;;;;;3.93;1.87;;;;;;;20.28;40.17;101899.03;5072998;28;20445;-70
2021/03/31 10:07:58;;;;;;;6.40;2.37;;;;;;;20.36;38.89;101895.41;5073026;28;21019;-70
2021/03/31 10:10:43;;;;;;;5.43;2.23;;;;;;;20.48;37.63;101889.16;5073084;28;20939;-70
2021/03/31 10:13:12;;;;;;;4.10;1.50;;;;;;;20.53;38.67;101877.16;5073220;28;20789;-70
2021/03/31 10:15:40;;;;;;;4.17;1.40;;;;;;;20.50;38.30;101888.84;5073027;28;20442;-70
2021/03/31 10:18:07;;;;;;;5.33;2.80;;;;;;;20.66;37.28;101871.34;5073161;28;20473;-70
2021/03/31 10:20:38;;;;;;;4.87;2.20;;;;;;;20.75;38.88;101876.78;5073348;28;20437;-71
2021/03/31 10:23:04;;;;;;;4.63;1.60;;;;;;;20.77;37.67;101871.75;5073219;28;20429;-70
2021/03/31 10:25:31;;;;;;;2.90;1.30;;;;;;;20.83;37.04;101870.38;5073297;28;20930;-71
2021/03/31 10:27:58;;;;;;;5.97;2.20;;;;;;;20.84;39.07;101863.72;5073430;28;20456;-69
2021/03/31 10:30:27;;;;;;;4.90;2.37;;;;;;;20.95;37.40;101861.38;5073300;28;20445;-71
2021/03/31 10:32:54;;;;;;;4.37;2.27;;;;;;;21.09;36.84;101866.56;5073474;28;20463;-71
2021/03/31 10:35:39;;;;;;;2.90;1.77;;;;;;;21.21;37.14;101863.03;5074407;28;20515;-71
2021/03/31 10:38:08;;;;;;;1.63;1.40;;;;;;;21.26;37.45;101858.09;5073318;28;20955;-70
2021/03/31 10:40:52;;;;;;;3.20;1.80;;;;;;;21.37;36.27;101851.00;5073065;28;20854;-71
2021/03/31 10:49:08;;;;;;;5.37;2.57;;;;;;;21.75;36.11;101840.78;5073478;28;20428;-70
2021/03/31 10:51:43;;;;;;;3.57;1.63;;;;;;;21.94;36.56;101837.41;5072707;28;20981;-72
2021/03/31 10:54:12;;;;;;;4.40;2.00;;;;;;;22.09;36.26;101836.69;5072977;28;20460;-71
2021/03/31 10:56:47;;;;;;;4.50;2.10;;;;;;;22.23;35.86;101831.63;5073018;28;20445;-72
2021/03/31 10:59:13;;;;;;;4.53;1.63;;;;;;;22.25;35.83;101828.53;5072709;28;20828;-72
2021/03/31 11:01:40;;;;;;;5.13;1.90;;;;;;;22.37;36.64;101826.53;5072650;28;20477;-71
2021/03/31 11:04:06;;;;;;;2.67;1.00;;;;;;;22.56;35.11;101816.78;5072346;28;20481;-71
2021/03/31 11:06:32;;;;;;;3.27;2.40;;;;;;;22.63;35.33;101816.97;5073044;28;20526;-70
2021/03/31 11:08:59;;;;;;;2.23;2.00;;;;;;;22.74;33.96;101820.81;5072799;28;20473;-70
2021/03/31 11:11:25;;;;;;;3.47;2.67;;;;;;;22.70;34.09;101814.38;5072649;28;20433;-70
2021/03/31 11:13:51;;;;;;;3.73;2.27;;;;;;;22.82;33.74;101813.53;5073512;28;20457;-70
2021/03/31 11:16:17;;;;;;;4.43;1.53;;;;;;;22.92;34.11;101808.31;5077397;28;20445;-70
2021/03/31 11:18:53;;;;;;;5.07;2.17;;;;;;;23.08;32.25;101810.28;5076328;28;20437;-73
2021/03/31 11:26:59;;;;;;;3.13;1.87;;;;;;;25.26;30.12;101801.81;5076027;28;20404;-69
2021/03/31 11:29:25;;;;;;;3.90;2.37;;;;;;;25.90;29.75;101804.78;5076852;28;20433;-69
2021/03/31 11:31:51;;;;;;;2.47;1.40;;;;;;;26.72;28.32;101799.38;5082713;28;20438;-69
2021/03/31 11:34:18;;;;;;;3.63;1.70;;;;;;;27.42;25.64;101796.41;5076053;28;20526;-70
2021/03/31 11:36:44;;;;;;;3.60;1.60;;;;;;;28.31;26.09;101795.28;5075954;28;20445;-71
2021/03/31 11:39:10;;;;;;;4.33;1.70;;;;;;;28.15;26.17;101790.03;5076065;28;20444;-71
2021/03/31 11:41:37;;;;;;;5.07;1.90;;;;;;;28.62;25.18;101779.84;5075810;28;21055;-69
2021/03/31 11:44:04;;;;;;;2.60;1.60;;;;;;;28.59;24.29;101777.84;5075643;28;20465;-71
2021/03/31 11:46:30;;;;;;;2.60;1.13;;;;;;;28.45;23.73;101770.25;5075855;28;20437;-73